РПИ Дашогуз

Руководитель РПИ

Evgeny Vygornitsky*

Инструкторы РПИ
Evgeny Vygornitsky (Supervisor)
Vitaliy Alekseyev (Instructor)
Входит в состав
ЗЦ Центральная Азия

Диспетчеры РПИ

Диспетчер Рейтинг Допуски *

Аэропорты РПИ

ICAO Город Название Погода
UTAT Дашогуз Дашогуз UTAT 161800Z 06002KT CAVOK M02/M03 Q1018 R26/CLRD70 NOSIG